sensor_id;sensor_type;location;lat;lon;timestamp;P1;durP1;ratioP1;P2;durP2;ratioP2
41253;SDS011;26987;59.928;30.306;2023-08-07T00:02:21;9.65;;;7.93;;
41253;SDS011;26987;59.928;30.306;2023-08-07T00:04:50;11.90;;;8.18;;
41253;SDS011;26987;59.928;30.306;2023-08-07T00:07:18;13.90;;;8.57;;
41253;SDS011;26987;59.928;30.306;2023-08-07T00:09:46;12.15;;;9.35;;
41253;SDS011;26987;59.928;30.306;2023-08-07T00:12:14;10.52;;;8.65;;
41253;SDS011;26987;59.928;30.306;2023-08-07T00:14:42;12.45;;;9.02;;
41253;SDS011;26987;59.928;30.306;2023-08-07T00:17:10;12.75;;;8.43;;
41253;SDS011;26987;59.928;30.306;2023-08-07T00:19:38;16.40;;;9.43;;
41253;SDS011;26987;59.928;30.306;2023-08-07T00:22:07;11.85;;;8.68;;
41253;SDS011;26987;59.928;30.306;2023-08-07T00:24:35;9.95;;;8.35;;
41253;SDS011;26987;59.928;30.306;2023-08-07T00:27:03;14.70;;;8.48;;
41253;SDS011;26987;59.928;30.306;2023-08-07T00:29:32;13.90;;;8.65;;
41253;SDS011;26987;59.928;30.306;2023-08-07T00:32:00;14.35;;;8.57;;
41253;SDS011;26987;59.928;30.306;2023-08-07T00:34:28;11.35;;;8.50;;
41253;SDS011;26987;59.928;30.306;2023-08-07T00:36:56;11.38;;;8.40;;
41253;SDS011;26987;59.928;30.306;2023-08-07T00:39:26;12.63;;;8.63;;
41253;SDS011;26987;59.928;30.306;2023-08-07T00:41:53;14.90;;;8.98;;
41253;SDS011;26987;59.928;30.306;2023-08-07T00:44:22;15.75;;;8.52;;
41253;SDS011;26987;59.928;30.306;2023-08-07T00:46:50;16.30;;;8.63;;
41253;SDS011;26987;59.928;30.306;2023-08-07T00:49:18;14.50;;;8.18;;
41253;SDS011;26987;59.928;30.306;2023-08-07T00:51:47;9.95;;;7.93;;
41253;SDS011;26987;59.928;30.306;2023-08-07T00:54:16;11.13;;;8.23;;
41253;SDS011;26987;59.928;30.306;2023-08-07T00:56:48;15.27;;;8.80;;
41253;SDS011;26987;59.928;30.306;2023-08-07T00:59:16;15.73;;;8.32;;
41253;SDS011;26987;59.928;30.306;2023-08-07T01:01:46;11.98;;;9.20;;
41253;SDS011;26987;59.928;30.306;2023-08-07T01:04:14;12.48;;;9.00;;
41253;SDS011;26987;59.928;30.306;2023-08-07T01:06:41;14.90;;;8.85;;
41253;SDS011;26987;59.928;30.306;2023-08-07T01:09:09;13.38;;;8.48;;
41253;SDS011;26987;59.928;30.306;2023-08-07T01:11:39;12.63;;;8.18;;
41253;SDS011;26987;59.928;30.306;2023-08-07T01:14:16;12.45;;;8.40;;
41253;SDS011;26987;59.928;30.306;2023-08-07T01:16:56;17.60;;;8.20;;
41253;SDS011;26987;59.928;30.306;2023-08-07T01:19:28;12.25;;;8.75;;
41253;SDS011;26987;59.928;30.306;2023-08-07T01:22:07;18.45;;;8.43;;
41253;SDS011;26987;59.928;30.306;2023-08-07T01:24:38;13.80;;;8.48;;
41253;SDS011;26987;59.928;30.306;2023-08-07T01:27:20;11.82;;;8.15;;
41253;SDS011;26987;59.928;30.306;2023-08-07T01:30:02;13.93;;;8.90;;
41253;SDS011;26987;59.928;30.306;2023-08-07T01:32:47;12.00;;;8.57;;
41253;SDS011;26987;59.928;30.306;2023-08-07T01:35:24;11.45;;;8.75;;
41253;SDS011;26987;59.928;30.306;2023-08-07T01:37:57;18.65;;;8.55;;
41253;SDS011;26987;59.928;30.306;2023-08-07T01:40:26;11.15;;;8.50;;
41253;SDS011;26987;59.928;30.306;2023-08-07T01:42:55;15.40;;;8.30;;
41253;SDS011;26987;59.928;30.306;2023-08-07T01:45:23;10.60;;;8.30;;
41253;SDS011;26987;59.928;30.306;2023-08-07T01:47:52;12.25;;;8.10;;
41253;SDS011;26987;59.928;30.306;2023-08-07T01:50:20;17.40;;;9.18;;
41253;SDS011;26987;59.928;30.306;2023-08-07T01:52:48;13.18;;;7.90;;
41253;SDS011;26987;59.928;30.306;2023-08-07T01:55:18;11.65;;;8.65;;
41253;SDS011;26987;59.928;30.306;2023-08-07T02:00:19;15.77;;;9.02;;
41253;SDS011;26987;59.928;30.306;2023-08-07T02:02:47;15.13;;;8.40;;
41253;SDS011;26987;59.928;30.306;2023-08-07T02:05:15;11.07;;;8.30;;
41253;SDS011;26987;59.928;30.306;2023-08-07T02:07:43;12.35;;;8.95;;
41253;SDS011;26987;59.928;30.306;2023-08-07T02:10:11;12.20;;;8.20;;
41253;SDS011;26987;59.928;30.306;2023-08-07T02:12:40;13.77;;;8.40;;
41253;SDS011;26987;59.928;30.306;2023-08-07T02:15:09;13.45;;;8.15;;
41253;SDS011;26987;59.928;30.306;2023-08-07T02:17:37;12.80;;;9.32;;
41253;SDS011;26987;59.928;30.306;2023-08-07T02:20:07;11.88;;;8.57;;
41253;SDS011;26987;59.928;30.306;2023-08-07T02:22:36;10.85;;;8.50;;
41253;SDS011;26987;59.928;30.306;2023-08-07T02:25:04;9.48;;;7.97;;
41253;SDS011;26987;59.928;30.306;2023-08-07T02:27:33;11.55;;;8.18;;
41253;SDS011;26987;59.928;30.306;2023-08-07T02:30:02;14.88;;;8.93;;
41253;SDS011;26987;59.928;30.306;2023-08-07T02:32:31;16.85;;;7.63;;
41253;SDS011;26987;59.928;30.306;2023-08-07T02:34:59;10.02;;;8.32;;
41253;SDS011;26987;59.928;30.306;2023-08-07T02:37:27;11.77;;;7.40;;
41253;SDS011;26987;59.928;30.306;2023-08-07T02:39:55;11.13;;;8.27;;
41253;SDS011;26987;59.928;30.306;2023-08-07T02:42:23;12.15;;;8.45;;
41253;SDS011;26987;59.928;30.306;2023-08-07T02:44:50;13.68;;;7.97;;
41253;SDS011;26987;59.928;30.306;2023-08-07T02:47:20;13.75;;;7.80;;
41253;SDS011;26987;59.928;30.306;2023-08-07T02:49:48;10.45;;;8.10;;
41253;SDS011;26987;59.928;30.306;2023-08-07T02:52:16;11.75;;;7.55;;
41253;SDS011;26987;59.928;30.306;2023-08-07T02:54:43;11.75;;;7.53;;
41253;SDS011;26987;59.928;30.306;2023-08-07T02:57:11;11.27;;;8.57;;
41253;SDS011;26987;59.928;30.306;2023-08-07T02:59:41;13.05;;;8.27;;
41253;SDS011;26987;59.928;30.306;2023-08-07T03:02:09;7.70;;;6.90;;
41253;SDS011;26987;59.928;30.306;2023-08-07T03:04:38;12.82;;;7.85;;
41253;SDS011;26987;59.928;30.306;2023-08-07T03:07:06;12.57;;;7.75;;
41253;SDS011;26987;59.928;30.306;2023-08-07T03:09:34;10.63;;;7.72;;
41253;SDS011;26987;59.928;30.306;2023-08-07T03:12:02;9.38;;;7.93;;
41253;SDS011;26987;59.928;30.306;2023-08-07T03:14:30;10.30;;;7.88;;
41253;SDS011;26987;59.928;30.306;2023-08-07T03:16:58;10.88;;;8.57;;
41253;SDS011;26987;59.928;30.306;2023-08-07T03:19:26;11.88;;;7.88;;
41253;SDS011;26987;59.928;30.306;2023-08-07T03:21:56;9.68;;;7.32;;
41253;SDS011;26987;59.928;30.306;2023-08-07T03:24:24;11.63;;;7.22;;
41253;SDS011;26987;59.928;30.306;2023-08-07T03:26:51;11.15;;;7.82;;
41253;SDS011;26987;59.928;30.306;2023-08-07T03:29:20;10.00;;;7.97;;
41253;SDS011;26987;59.928;30.306;2023-08-07T03:31:48;11.05;;;8.45;;
41253;SDS011;26987;59.928;30.306;2023-08-07T03:34:16;9.30;;;7.40;;
41253;SDS011;26987;59.928;30.306;2023-08-07T03:36:45;10.18;;;7.88;;
41253;SDS011;26987;59.928;30.306;2023-08-07T03:39:14;10.43;;;7.35;;
41253;SDS011;26987;59.928;30.306;2023-08-07T03:41:43;9.85;;;6.78;;
41253;SDS011;26987;59.928;30.306;2023-08-07T03:44:11;8.13;;;6.90;;
41253;SDS011;26987;59.928;30.306;2023-08-07T03:46:39;10.05;;;7.25;;
41253;SDS011;26987;59.928;30.306;2023-08-07T03:49:07;10.10;;;6.97;;
41253;SDS011;26987;59.928;30.306;2023-08-07T03:51:35;8.77;;;7.25;;
41253;SDS011;26987;59.928;30.306;2023-08-07T03:54:03;8.27;;;6.10;;
41253;SDS011;26987;59.928;30.306;2023-08-07T03:56:33;9.80;;;6.90;;
41253;SDS011;26987;59.928;30.306;2023-08-07T03:59:03;12.13;;;7.47;;
41253;SDS011;26987;59.928;30.306;2023-08-07T04:01:31;9.98;;;6.30;;
41253;SDS011;26987;59.928;30.306;2023-08-07T04:03:59;15.50;;;6.38;;
41253;SDS011;26987;59.928;30.306;2023-08-07T04:06:27;11.90;;;5.97;;
41253;SDS011;26987;59.928;30.306;2023-08-07T04:08:55;8.32;;;6.72;;
41253;SDS011;26987;59.928;30.306;2023-08-07T04:11:23;9.63;;;5.90;;
41253;SDS011;26987;59.928;30.306;2023-08-07T04:13:52;10.35;;;6.15;;
41253;SDS011;26987;59.928;30.306;2023-08-07T04:16:20;9.10;;;6.45;;
41253;SDS011;26987;59.928;30.306;2023-08-07T04:18:48;9.25;;;6.90;;
41253;SDS011;26987;59.928;30.306;2023-08-07T04:21:16;8.73;;;6.45;;
41253;SDS011;26987;59.928;30.306;2023-08-07T04:23:44;14.80;;;6.22;;
41253;SDS011;26987;59.928;30.306;2023-08-07T04:26:12;8.55;;;6.00;;
41253;SDS011;26987;59.928;30.306;2023-08-07T04:28:40;6.95;;;5.47;;
41253;SDS011;26987;59.928;30.306;2023-08-07T04:31:09;10.63;;;5.93;;
41253;SDS011;26987;59.928;30.306;2023-08-07T04:33:37;9.07;;;5.80;;
41253;SDS011;26987;59.928;30.306;2023-08-07T04:36:05;11.48;;;6.15;;
41253;SDS011;26987;59.928;30.306;2023-08-07T04:38:33;11.98;;;5.95;;
41253;SDS011;26987;59.928;30.306;2023-08-07T04:41:01;9.50;;;5.93;;
41253;SDS011;26987;59.928;30.306;2023-08-07T04:43:29;12.68;;;5.93;;
41253;SDS011;26987;59.928;30.306;2023-08-07T04:45:57;9.25;;;5.03;;
41253;SDS011;26987;59.928;30.306;2023-08-07T04:48:26;8.35;;;4.90;;
41253;SDS011;26987;59.928;30.306;2023-08-07T04:50:54;8.27;;;5.40;;
41253;SDS011;26987;59.928;30.306;2023-08-07T04:53:23;8.02;;;5.75;;
41253;SDS011;26987;59.928;30.306;2023-08-07T04:55:51;8.80;;;5.28;;
41253;SDS011;26987;59.928;30.306;2023-08-07T04:58:19;6.57;;;5.03;;
41253;SDS011;26987;59.928;30.306;2023-08-07T05:00:47;7.32;;;5.10;;
41253;SDS011;26987;59.928;30.306;2023-08-07T05:03:15;7.97;;;5.25;;
41253;SDS011;26987;59.928;30.306;2023-08-07T05:05:45;9.25;;;5.13;;
41253;SDS011;26987;59.928;30.306;2023-08-07T05:08:13;9.10;;;5.38;;
41253;SDS011;26987;59.928;30.306;2023-08-07T05:10:41;9.73;;;5.60;;
41253;SDS011;26987;59.928;30.306;2023-08-07T05:13:09;9.63;;;5.05;;
41253;SDS011;26987;59.928;30.306;2023-08-07T05:15:37;6.57;;;5.25;;
41253;SDS011;26987;59.928;30.306;2023-08-07T05:18:06;8.18;;;4.93;;
41253;SDS011;26987;59.928;30.306;2023-08-07T05:20:34;10.48;;;5.45;;
41253;SDS011;26987;59.928;30.306;2023-08-07T05:23:03;9.60;;;5.00;;
41253;SDS011;26987;59.928;30.306;2023-08-07T05:25:31;6.95;;;5.40;;
41253;SDS011;26987;59.928;30.306;2023-08-07T05:27:59;12.93;;;4.85;;
41253;SDS011;26987;59.928;30.306;2023-08-07T05:30:27;6.32;;;5.22;;
41253;SDS011;26987;59.928;30.306;2023-08-07T05:32:55;8.73;;;5.28;;
41253;SDS011;26987;59.928;30.306;2023-08-07T05:35:23;5.82;;;5.18;;
41253;SDS011;26987;59.928;30.306;2023-08-07T05:37:50;7.30;;;5.78;;
41253;SDS011;26987;59.928;30.306;2023-08-07T05:40:20;15.57;;;5.85;;
41253;SDS011;26987;59.928;30.306;2023-08-07T05:42:48;8.18;;;5.00;;
41253;SDS011;26987;59.928;30.306;2023-08-07T05:45:16;7.25;;;5.43;;
41253;SDS011;26987;59.928;30.306;2023-08-07T05:47:44;7.63;;;5.22;;
41253;SDS011;26987;59.928;30.306;2023-08-07T05:50:11;10.32;;;5.40;;
41253;SDS011;26987;59.928;30.306;2023-08-07T05:52:39;8.38;;;5.32;;
41253;SDS011;26987;59.928;30.306;2023-08-07T05:55:07;10.40;;;5.22;;
41253;SDS011;26987;59.928;30.306;2023-08-07T05:57:37;7.85;;;4.85;;
41253;SDS011;26987;59.928;30.306;2023-08-07T06:00:05;9.35;;;4.78;;
41253;SDS011;26987;59.928;30.306;2023-08-07T06:02:40;11.57;;;4.88;;
41253;SDS011;26987;59.928;30.306;2023-08-07T06:05:07;8.02;;;4.70;;
41253;SDS011;26987;59.928;30.306;2023-08-07T06:07:38;7.28;;;4.97;;
41253;SDS011;26987;59.928;30.306;2023-08-07T06:10:06;6.43;;;4.85;;
41253;SDS011;26987;59.928;30.306;2023-08-07T06:12:34;6.65;;;4.63;;
41253;SDS011;26987;59.928;30.306;2023-08-07T06:15:04;17.33;;;6.05;;
41253;SDS011;26987;59.928;30.306;2023-08-07T06:17:32;9.77;;;4.82;;
41253;SDS011;26987;59.928;30.306;2023-08-07T06:20:00;8.73;;;5.22;;
41253;SDS011;26987;59.928;30.306;2023-08-07T06:22:30;6.22;;;4.63;;
41253;SDS011;26987;59.928;30.306;2023-08-07T06:24:58;8.50;;;5.47;;
41253;SDS011;26987;59.928;30.306;2023-08-07T06:27:26;7.82;;;5.20;;
41253;SDS011;26987;59.928;30.306;2023-08-07T06:29:54;9.52;;;4.72;;
41253;SDS011;26987;59.928;30.306;2023-08-07T06:32:24;9.60;;;5.15;;
41253;SDS011;26987;59.928;30.306;2023-08-07T06:34:52;11.20;;;5.22;;
41253;SDS011;26987;59.928;30.306;2023-08-07T06:37:20;11.10;;;4.90;;
41253;SDS011;26987;59.928;30.306;2023-08-07T06:39:48;8.70;;;5.05;;
41253;SDS011;26987;59.928;30.306;2023-08-07T06:42:15;12.02;;;4.82;;
41253;SDS011;26987;59.928;30.306;2023-08-07T06:44:45;8.55;;;5.25;;
41253;SDS011;26987;59.928;30.306;2023-08-07T06:47:13;15.85;;;6.55;;
41253;SDS011;26987;59.928;30.306;2023-08-07T06:49:43;11.73;;;5.43;;
41253;SDS011;26987;59.928;30.306;2023-08-07T06:52:10;12.50;;;5.75;;
41253;SDS011;26987;59.928;30.306;2023-08-07T06:54:38;6.90;;;5.10;;
41253;SDS011;26987;59.928;30.306;2023-08-07T06:57:06;5.68;;;4.50;;
41253;SDS011;26987;59.928;30.306;2023-08-07T06:59:34;10.18;;;5.20;;
41253;SDS011;26987;59.928;30.306;2023-08-07T07:02:02;8.95;;;5.00;;
41253;SDS011;26987;59.928;30.306;2023-08-07T07:04:30;12.02;;;5.15;;
41253;SDS011;26987;59.928;30.306;2023-08-07T07:07:00;7.07;;;5.35;;
41253;SDS011;26987;59.928;30.306;2023-08-07T07:09:28;12.45;;;5.13;;
41253;SDS011;26987;59.928;30.306;2023-08-07T07:11:56;9.05;;;5.45;;
41253;SDS011;26987;59.928;30.306;2023-08-07T07:14:24;8.77;;;4.75;;
41253;SDS011;26987;59.928;30.306;2023-08-07T07:16:52;12.18;;;5.63;;
41253;SDS011;26987;59.928;30.306;2023-08-07T07:19:20;8.65;;;4.78;;
41253;SDS011;26987;59.928;30.306;2023-08-07T07:21:47;7.25;;;4.30;;
41253;SDS011;26987;59.928;30.306;2023-08-07T07:24:17;10.02;;;5.80;;
41253;SDS011;26987;59.928;30.306;2023-08-07T07:26:45;10.13;;;5.57;;
41253;SDS011;26987;59.928;30.306;2023-08-07T07:29:13;5.97;;;4.45;;
41253;SDS011;26987;59.928;30.306;2023-08-07T07:31:40;8.05;;;4.45;;
41253;SDS011;26987;59.928;30.306;2023-08-07T07:34:08;7.30;;;4.65;;
41253;SDS011;26987;59.928;30.306;2023-08-07T07:36:36;7.85;;;4.63;;
41253;SDS011;26987;59.928;30.306;2023-08-07T07:39:04;10.07;;;5.15;;
41253;SDS011;26987;59.928;30.306;2023-08-07T07:41:34;18.13;;;5.47;;
41253;SDS011;26987;59.928;30.306;2023-08-07T07:44:02;8.90;;;4.95;;
41253;SDS011;26987;59.928;30.306;2023-08-07T07:46:29;8.50;;;5.10;;
41253;SDS011;26987;59.928;30.306;2023-08-07T07:48:58;11.60;;;5.22;;
41253;SDS011;26987;59.928;30.306;2023-08-07T07:51:27;13.15;;;4.68;;
41253;SDS011;26987;59.928;30.306;2023-08-07T07:53:55;9.23;;;4.93;;
41253;SDS011;26987;59.928;30.306;2023-08-07T07:56:23;10.35;;;4.65;;
41253;SDS011;26987;59.928;30.306;2023-08-07T07:58:52;10.80;;;4.57;;
41253;SDS011;26987;59.928;30.306;2023-08-07T08:01:20;8.80;;;4.95;;
41253;SDS011;26987;59.928;30.306;2023-08-07T08:03:48;8.98;;;4.75;;
41253;SDS011;26987;59.928;30.306;2023-08-07T08:06:15;7.38;;;5.05;;
41253;SDS011;26987;59.928;30.306;2023-08-07T08:08:44;8.82;;;4.35;;
41253;SDS011;26987;59.928;30.306;2023-08-07T08:11:12;7.45;;;4.78;;
41253;SDS011;26987;59.928;30.306;2023-08-07T08:13:39;14.77;;;5.93;;
41253;SDS011;26987;59.928;30.306;2023-08-07T08:16:09;14.45;;;5.07;;
41253;SDS011;26987;59.928;30.306;2023-08-07T08:18:36;13.88;;;4.82;;
41253;SDS011;26987;59.928;30.306;2023-08-07T08:21:04;8.13;;;4.93;;
41253;SDS011;26987;59.928;30.306;2023-08-07T08:23:32;12.73;;;5.00;;
41253;SDS011;26987;59.928;30.306;2023-08-07T08:26:00;9.40;;;4.60;;
41253;SDS011;26987;59.928;30.306;2023-08-07T08:28:29;9.70;;;4.57;;
41253;SDS011;26987;59.928;30.306;2023-08-07T08:30:56;14.63;;;4.53;;
41253;SDS011;26987;59.928;30.306;2023-08-07T08:33:26;6.03;;;4.57;;
41253;SDS011;26987;59.928;30.306;2023-08-07T08:35:54;12.27;;;5.93;;
41253;SDS011;26987;59.928;30.306;2023-08-07T08:38:21;12.73;;;5.70;;
41253;SDS011;26987;59.928;30.306;2023-08-07T08:40:50;6.97;;;4.75;;
41253;SDS011;26987;59.928;30.306;2023-08-07T08:43:19;19.48;;;4.78;;
41253;SDS011;26987;59.928;30.306;2023-08-07T08:45:48;9.90;;;5.55;;
41253;SDS011;26987;59.928;30.306;2023-08-07T08:48:17;7.15;;;4.50;;
41253;SDS011;26987;59.928;30.306;2023-08-07T08:50:50;13.90;;;4.60;;
41253;SDS011;26987;59.928;30.306;2023-08-07T08:53:20;7.53;;;4.43;;
41253;SDS011;26987;59.928;30.306;2023-08-07T08:55:48;9.48;;;4.63;;
41253;SDS011;26987;59.928;30.306;2023-08-07T08:58:17;11.23;;;4.75;;
41253;SDS011;26987;59.928;30.306;2023-08-07T09:00:47;8.48;;;4.63;;
41253;SDS011;26987;59.928;30.306;2023-08-07T09:03:15;7.75;;;4.70;;
41253;SDS011;26987;59.928;30.306;2023-08-07T09:05:44;8.63;;;4.57;;
41253;SDS011;26987;59.928;30.306;2023-08-07T09:08:15;7.80;;;4.53;;
41253;SDS011;26987;59.928;30.306;2023-08-07T09:10:43;8.73;;;4.57;;
41253;SDS011;26987;59.928;30.306;2023-08-07T09:13:14;7.60;;;4.10;;
41253;SDS011;26987;59.928;30.306;2023-08-07T09:15:42;9.70;;;4.35;;
41253;SDS011;26987;59.928;30.306;2023-08-07T09:18:16;6.55;;;4.22;;
41253;SDS011;26987;59.928;30.306;2023-08-07T09:20:45;13.05;;;4.85;;
41253;SDS011;26987;59.928;30.306;2023-08-07T09:23:17;11.88;;;4.20;;
41253;SDS011;26987;59.928;30.306;2023-08-07T09:25:45;6.80;;;4.22;;
41253;SDS011;26987;59.928;30.306;2023-08-07T09:28:13;5.85;;;4.18;;
41253;SDS011;26987;59.928;30.306;2023-08-07T09:30:41;5.93;;;3.85;;
41253;SDS011;26987;59.928;30.306;2023-08-07T09:33:10;11.05;;;4.60;;
41253;SDS011;26987;59.928;30.306;2023-08-07T09:35:38;5.18;;;4.00;;
41253;SDS011;26987;59.928;30.306;2023-08-07T09:38:06;7.28;;;3.97;;
41253;SDS011;26987;59.928;30.306;2023-08-07T09:40:36;7.68;;;4.55;;
41253;SDS011;26987;59.928;30.306;2023-08-07T09:43:06;10.73;;;3.92;;
41253;SDS011;26987;59.928;30.306;2023-08-07T09:45:49;10.98;;;3.90;;
41253;SDS011;26987;59.928;30.306;2023-08-07T09:48:20;8.23;;;4.03;;
41253;SDS011;26987;59.928;30.306;2023-08-07T09:50:52;14.97;;;4.50;;
41253;SDS011;26987;59.928;30.306;2023-08-07T09:53:29;5.85;;;3.53;;
41253;SDS011;26987;59.928;30.306;2023-08-07T09:55:58;6.03;;;3.40;;
41253;SDS011;26987;59.928;30.306;2023-08-07T09:58:28;6.18;;;3.58;;
41253;SDS011;26987;59.928;30.306;2023-08-07T10:00:58;11.85;;;3.42;;
41253;SDS011;26987;59.928;30.306;2023-08-07T10:03:26;11.40;;;3.47;;
41253;SDS011;26987;59.928;30.306;2023-08-07T10:05:54;8.63;;;3.30;;
41253;SDS011;26987;59.928;30.306;2023-08-07T10:08:22;4.85;;;3.28;;
41253;SDS011;26987;59.928;30.306;2023-08-07T10:10:51;8.57;;;2.97;;
41253;SDS011;26987;59.928;30.306;2023-08-07T10:13:20;6.25;;;3.00;;
41253;SDS011;26987;59.928;30.306;2023-08-07T10:15:50;7.50;;;3.00;;
41253;SDS011;26987;59.928;30.306;2023-08-07T10:18:18;4.18;;;2.58;;
41253;SDS011;26987;59.928;30.306;2023-08-07T10:20:47;6.40;;;2.92;;
41253;SDS011;26987;59.928;30.306;2023-08-07T10:23:15;7.78;;;3.35;;
41253;SDS011;26987;59.928;30.306;2023-08-07T10:25:45;8.73;;;3.53;;
41253;SDS011;26987;59.928;30.306;2023-08-07T10:28:16;16.88;;;2.80;;
41253;SDS011;26987;59.928;30.306;2023-08-07T10:30:48;12.32;;;3.10;;
41253;SDS011;26987;59.928;30.306;2023-08-07T10:33:17;5.28;;;3.00;;
41253;SDS011;26987;59.928;30.306;2023-08-07T10:35:46;11.82;;;4.57;;
41253;SDS011;26987;59.928;30.306;2023-08-07T10:38:15;6.95;;;3.13;;
41253;SDS011;26987;59.928;30.306;2023-08-07T10:40:59;4.88;;;2.80;;
41253;SDS011;26987;59.928;30.306;2023-08-07T10:43:29;4.10;;;2.63;;
41253;SDS011;26987;59.928;30.306;2023-08-07T10:46:05;4.43;;;2.60;;
41253;SDS011;26987;59.928;30.306;2023-08-07T10:48:40;6.07;;;3.45;;
41253;SDS011;26987;59.928;30.306;2023-08-07T10:51:11;6.45;;;3.25;;
41253;SDS011;26987;59.928;30.306;2023-08-07T10:53:41;4.00;;;2.85;;
41253;SDS011;26987;59.928;30.306;2023-08-07T10:56:15;3.97;;;2.88;;
41253;SDS011;26987;59.928;30.306;2023-08-07T10:58:47;3.63;;;2.58;;
41253;SDS011;26987;59.928;30.306;2023-08-07T11:01:26;6.60;;;2.63;;
41253;SDS011;26987;59.928;30.306;2023-08-07T11:04:05;3.10;;;2.42;;
41253;SDS011;26987;59.928;30.306;2023-08-07T11:06:34;14.95;;;2.72;;
41253;SDS011;26987;59.928;30.306;2023-08-07T11:09:04;11.07;;;3.00;;
41253;SDS011;26987;59.928;30.306;2023-08-07T11:11:35;7.70;;;2.65;;
41253;SDS011;26987;59.928;30.306;2023-08-07T11:14:06;4.10;;;2.60;;
41253;SDS011;26987;59.928;30.306;2023-08-07T11:16:35;6.00;;;2.50;;
41253;SDS011;26987;59.928;30.306;2023-08-07T11:19:04;12.20;;;2.38;;
41253;SDS011;26987;59.928;30.306;2023-08-07T11:21:32;7.65;;;2.10;;
41253;SDS011;26987;59.928;30.306;2023-08-07T11:24:01;4.25;;;1.90;;
41253;SDS011;26987;59.928;30.306;2023-08-07T11:26:32;5.40;;;2.35;;
41253;SDS011;26987;59.928;30.306;2023-08-07T11:29:00;3.03;;;2.17;;
41253;SDS011;26987;59.928;30.306;2023-08-07T11:31:28;8.95;;;2.42;;
41253;SDS011;26987;59.928;30.306;2023-08-07T11:33:57;3.38;;;1.95;;
41253;SDS011;26987;59.928;30.306;2023-08-07T11:36:25;7.40;;;2.42;;
41253;SDS011;26987;59.928;30.306;2023-08-07T11:38:53;7.00;;;2.47;;
41253;SDS011;26987;59.928;30.306;2023-08-07T11:41:22;9.93;;;2.70;;
41253;SDS011;26987;59.928;30.306;2023-08-07T11:43:49;4.72;;;2.22;;
41253;SDS011;26987;59.928;30.306;2023-08-07T11:46:17;5.68;;;2.60;;
41253;SDS011;26987;59.928;30.306;2023-08-07T11:48:45;11.95;;;3.08;;
41253;SDS011;26987;59.928;30.306;2023-08-07T11:51:14;8.40;;;3.00;;
41253;SDS011;26987;59.928;30.306;2023-08-07T11:53:43;5.00;;;2.70;;
41253;SDS011;26987;59.928;30.306;2023-08-07T11:56:12;5.05;;;2.65;;
41253;SDS011;26987;59.928;30.306;2023-08-07T11:58:41;5.90;;;3.45;;
41253;SDS011;26987;59.928;30.306;2023-08-07T12:01:12;5.30;;;2.47;;
41253;SDS011;26987;59.928;30.306;2023-08-07T12:03:42;7.63;;;2.30;;
41253;SDS011;26987;59.928;30.306;2023-08-07T12:06:22;10.65;;;2.50;;
41253;SDS011;26987;59.928;30.306;2023-08-07T12:08:53;10.02;;;2.30;;
41253;SDS011;26987;59.928;30.306;2023-08-07T12:11:22;3.92;;;2.40;;
41253;SDS011;26987;59.928;30.306;2023-08-07T12:13:51;4.93;;;2.58;;
41253;SDS011;26987;59.928;30.306;2023-08-07T12:16:19;19.73;;;2.38;;
41253;SDS011;26987;59.928;30.306;2023-08-07T12:18:48;7.30;;;2.33;;
41253;SDS011;26987;59.928;30.306;2023-08-07T12:21:17;5.35;;;2.20;;
41253;SDS011;26987;59.928;30.306;2023-08-07T12:23:48;5.88;;;2.53;;
41253;SDS011;26987;59.928;30.306;2023-08-07T12:26:16;5.05;;;2.08;;
41253;SDS011;26987;59.928;30.306;2023-08-07T12:28:44;4.53;;;2.00;;
41253;SDS011;26987;59.928;30.306;2023-08-07T12:31:12;11.95;;;2.33;;
41253;SDS011;26987;59.928;30.306;2023-08-07T12:33:40;4.28;;;2.53;;
41253;SDS011;26987;59.928;30.306;2023-08-07T12:36:08;6.57;;;2.45;;
41253;SDS011;26987;59.928;30.306;2023-08-07T12:38:36;4.32;;;2.40;;
41253;SDS011;26987;59.928;30.306;2023-08-07T12:41:06;7.00;;;2.53;;
41253;SDS011;26987;59.928;30.306;2023-08-07T12:43:34;4.30;;;2.22;;
41253;SDS011;26987;59.928;30.306;2023-08-07T12:46:02;5.53;;;2.17;;
41253;SDS011;26987;59.928;30.306;2023-08-07T12:48:30;3.42;;;2.08;;
41253;SDS011;26987;59.928;30.306;2023-08-07T12:50:58;4.38;;;2.10;;
41253;SDS011;26987;59.928;30.306;2023-08-07T12:53:25;6.80;;;2.30;;
41253;SDS011;26987;59.928;30.306;2023-08-07T12:55:55;11.52;;;2.80;;
41253;SDS011;26987;59.928;30.306;2023-08-07T12:58:24;7.20;;;2.47;;
41253;SDS011;26987;59.928;30.306;2023-08-07T13:00:55;6.85;;;2.40;;
41253;SDS011;26987;59.928;30.306;2023-08-07T13:03:23;8.45;;;2.30;;
41253;SDS011;26987;59.928;30.306;2023-08-07T13:05:51;14.65;;;3.17;;
41253;SDS011;26987;59.928;30.306;2023-08-07T13:08:19;5.65;;;2.25;;
41253;SDS011;26987;59.928;30.306;2023-08-07T13:10:47;6.97;;;2.42;;
41253;SDS011;26987;59.928;30.306;2023-08-07T13:13:15;5.10;;;2.22;;
41253;SDS011;26987;59.928;30.306;2023-08-07T13:15:44;6.53;;;2.47;;
41253;SDS011;26987;59.928;30.306;2023-08-07T13:18:12;7.35;;;2.33;;
41253;SDS011;26987;59.928;30.306;2023-08-07T13:20:42;12.23;;;3.00;;
41253;SDS011;26987;59.928;30.306;2023-08-07T13:23:10;13.90;;;2.95;;
41253;SDS011;26987;59.928;30.306;2023-08-07T13:25:39;13.85;;;3.10;;
41253;SDS011;26987;59.928;30.306;2023-08-07T13:28:07;8.05;;;2.22;;
41253;SDS011;26987;59.928;30.306;2023-08-07T13:30:35;13.27;;;2.72;;
41253;SDS011;26987;59.928;30.306;2023-08-07T13:33:05;9.23;;;3.03;;
41253;SDS011;26987;59.928;30.306;2023-08-07T13:35:32;9.48;;;2.20;;
41253;SDS011;26987;59.928;30.306;2023-08-07T13:38:00;8.50;;;2.78;;
41253;SDS011;26987;59.928;30.306;2023-08-07T13:40:31;6.40;;;2.85;;
41253;SDS011;26987;59.928;30.306;2023-08-07T13:42:59;6.93;;;2.55;;
41253;SDS011;26987;59.928;30.306;2023-08-07T13:45:33;10.05;;;2.95;;
41253;SDS011;26987;59.928;30.306;2023-08-07T13:48:01;19.30;;;3.03;;
41253;SDS011;26987;59.928;30.306;2023-08-07T13:50:32;14.75;;;3.35;;
41253;SDS011;26987;59.928;30.306;2023-08-07T13:53:00;8.00;;;2.85;;
41253;SDS011;26987;59.928;30.306;2023-08-07T13:55:28;5.60;;;2.53;;
41253;SDS011;26987;59.928;30.306;2023-08-07T13:57:56;3.03;;;1.83;;
41253;SDS011;26987;59.928;30.306;2023-08-07T14:00:24;3.17;;;1.83;;
41253;SDS011;26987;59.928;30.306;2023-08-07T14:02:52;4.05;;;2.38;;
41253;SDS011;26987;59.928;30.306;2023-08-07T14:05:20;8.55;;;2.50;;
41253;SDS011;26987;59.928;30.306;2023-08-07T14:07:50;3.92;;;2.72;;
41253;SDS011;26987;59.928;30.306;2023-08-07T14:10:19;7.60;;;2.90;;
41253;SDS011;26987;59.928;30.306;2023-08-07T14:12:47;7.30;;;2.67;;
41253;SDS011;26987;59.928;30.306;2023-08-07T14:15:15;5.80;;;2.65;;
41253;SDS011;26987;59.928;30.306;2023-08-07T14:17:43;10.10;;;2.92;;
41253;SDS011;26987;59.928;30.306;2023-08-07T14:20:11;6.82;;;2.33;;
41253;SDS011;26987;59.928;30.306;2023-08-07T14:22:39;8.25;;;2.67;;
41253;SDS011;26987;59.928;30.306;2023-08-07T14:25:09;10.68;;;2.60;;
41253;SDS011;26987;59.928;30.306;2023-08-07T14:27:37;9.57;;;2.65;;
41253;SDS011;26987;59.928;30.306;2023-08-07T14:30:05;8.70;;;2.42;;
41253;SDS011;26987;59.928;30.306;2023-08-07T14:32:34;8.98;;;2.47;;
41253;SDS011;26987;59.928;30.306;2023-08-07T14:35:02;9.40;;;2.78;;
41253;SDS011;26987;59.928;30.306;2023-08-07T14:37:31;8.10;;;3.08;;
41253;SDS011;26987;59.928;30.306;2023-08-07T14:39:58;8.93;;;2.67;;
41253;SDS011;26987;59.928;30.306;2023-08-07T14:42:28;5.95;;;2.47;;